Terminal Aerodrome Forecast
Issued by NWS Topeka, KS

Home | Current Version | Previous Version | Text Only | Print | Product List | Glossary On
Versions: 1 2 3 4 5 6 7 8 9 10 11 12 13 14 15 16 17 18
000
FTUS43 KTOP 281400 AAA
TAFTOP
TAF AMD
KTOP 281408Z 2814/0112 10007KT 1SM -SN BKN015
      TEMPO 2814/2818 1/2SM SN BKN009
     FM010000 14003KT 6SM BR OVC025=

USA.gov is the U.S. government's official web portal to all federal, state and local government web resources and services.